sensor_id;sensor_type;location;lat;lon;timestamp;P1;durP1;ratioP1;P2;durP2;ratioP2
1987;SDS011;12775;46.994;15.498;2024-02-15T00:00:23;12.60;;;8.54;;
1987;SDS011;12775;46.994;15.498;2024-02-15T00:02:51;10.36;;;8.10;;
1987;SDS011;12775;46.994;15.498;2024-02-15T00:05:18;11.12;;;8.60;;
1987;SDS011;12775;46.994;15.498;2024-02-15T00:07:45;12.48;;;8.38;;
1987;SDS011;12775;46.994;15.498;2024-02-15T00:10:15;10.34;;;7.88;;
1987;SDS011;12775;46.994;15.498;2024-02-15T00:12:42;9.36;;;8.14;;
1987;SDS011;12775;46.994;15.498;2024-02-15T00:15:09;8.30;;;7.46;;
1987;SDS011;12775;46.994;15.498;2024-02-15T00:17:38;7.30;;;6.60;;
1987;SDS011;12775;46.994;15.498;2024-02-15T00:20:05;9.98;;;7.70;;
1987;SDS011;12775;46.994;15.498;2024-02-15T00:22:33;10.42;;;7.62;;
1987;SDS011;12775;46.994;15.498;2024-02-15T00:25:00;12.84;;;8.54;;
1987;SDS011;12775;46.994;15.498;2024-02-15T00:27:28;8.08;;;6.72;;
1987;SDS011;12775;46.994;15.498;2024-02-15T00:29:55;9.82;;;7.60;;
1987;SDS011;12775;46.994;15.498;2024-02-15T00:32:22;9.00;;;7.54;;
1987;SDS011;12775;46.994;15.498;2024-02-15T00:34:50;14.86;;;9.06;;
1987;SDS011;12775;46.994;15.498;2024-02-15T00:37:17;7.94;;;7.20;;
1987;SDS011;12775;46.994;15.498;2024-02-15T00:39:45;10.56;;;7.26;;
1987;SDS011;12775;46.994;15.498;2024-02-15T00:42:12;8.68;;;7.74;;
1987;SDS011;12775;46.994;15.498;2024-02-15T00:44:39;8.66;;;7.56;;
1987;SDS011;12775;46.994;15.498;2024-02-15T00:47:09;8.74;;;7.82;;
1987;SDS011;12775;46.994;15.498;2024-02-15T00:49:35;10.24;;;8.76;;
1987;SDS011;12775;46.994;15.498;2024-02-15T00:52:01;10.20;;;8.14;;
1987;SDS011;12775;46.994;15.498;2024-02-15T00:54:29;11.08;;;7.00;;
1987;SDS011;12775;46.994;15.498;2024-02-15T00:56:56;11.30;;;7.48;;
1987;SDS011;12775;46.994;15.498;2024-02-15T00:59:23;10.14;;;7.32;;
1987;SDS011;12775;46.994;15.498;2024-02-15T01:01:52;8.52;;;7.02;;
1987;SDS011;12775;46.994;15.498;2024-02-15T01:04:19;9.24;;;7.32;;
1987;SDS011;12775;46.994;15.498;2024-02-15T01:06:46;10.10;;;8.86;;
1987;SDS011;12775;46.994;15.498;2024-02-15T01:09:14;16.82;;;10.10;;
1987;SDS011;12775;46.994;15.498;2024-02-15T01:11:41;11.46;;;8.80;;
1987;SDS011;12775;46.994;15.498;2024-02-15T01:14:08;11.54;;;9.14;;
1987;SDS011;12775;46.994;15.498;2024-02-15T01:16:35;16.00;;;10.06;;
1987;SDS011;12775;46.994;15.498;2024-02-15T01:19:02;13.42;;;10.44;;
1987;SDS011;12775;46.994;15.498;2024-02-15T01:21:30;13.04;;;10.18;;
1987;SDS011;12775;46.994;15.498;2024-02-15T01:23:57;10.84;;;8.70;;
1987;SDS011;12775;46.994;15.498;2024-02-15T01:26:24;12.72;;;9.28;;
1987;SDS011;12775;46.994;15.498;2024-02-15T01:28:52;17.06;;;11.42;;
1987;SDS011;12775;46.994;15.498;2024-02-15T01:31:19;14.52;;;10.80;;
1987;SDS011;12775;46.994;15.498;2024-02-15T01:33:47;18.60;;;10.48;;
1987;SDS011;12775;46.994;15.498;2024-02-15T01:36:14;14.50;;;9.96;;
1987;SDS011;12775;46.994;15.498;2024-02-15T01:38:41;12.78;;;10.08;;
1987;SDS011;12775;46.994;15.498;2024-02-15T01:41:09;12.22;;;10.72;;
1987;SDS011;12775;46.994;15.498;2024-02-15T01:43:36;11.08;;;9.98;;
1987;SDS011;12775;46.994;15.498;2024-02-15T01:46:07;14.36;;;9.08;;
1987;SDS011;12775;46.994;15.498;2024-02-15T01:48:31;10.68;;;8.54;;
1987;SDS011;12775;46.994;15.498;2024-02-15T01:50:59;12.84;;;9.44;;
1987;SDS011;12775;46.994;15.498;2024-02-15T01:53:26;11.74;;;8.44;;
1987;SDS011;12775;46.994;15.498;2024-02-15T01:55:54;14.86;;;9.44;;
1987;SDS011;12775;46.994;15.498;2024-02-15T01:58:21;8.60;;;7.46;;
1987;SDS011;12775;46.994;15.498;2024-02-15T02:00:48;14.52;;;9.70;;
1987;SDS011;12775;46.994;15.498;2024-02-15T02:03:16;11.16;;;8.60;;
1987;SDS011;12775;46.994;15.498;2024-02-15T02:05:43;11.72;;;9.12;;
1987;SDS011;12775;46.994;15.498;2024-02-15T02:08:10;8.28;;;6.72;;
1987;SDS011;12775;46.994;15.498;2024-02-15T02:10:39;12.28;;;9.20;;
1987;SDS011;12775;46.994;15.498;2024-02-15T02:13:06;11.70;;;9.14;;
1987;SDS011;12775;46.994;15.498;2024-02-15T02:15:34;8.68;;;7.30;;
1987;SDS011;12775;46.994;15.498;2024-02-15T02:18:02;8.18;;;6.98;;
1987;SDS011;12775;46.994;15.498;2024-02-15T02:20:29;11.86;;;8.64;;
1987;SDS011;12775;46.994;15.498;2024-02-15T02:22:59;10.86;;;8.48;;
1987;SDS011;12775;46.994;15.498;2024-02-15T02:25:25;11.66;;;8.70;;
1987;SDS011;12775;46.994;15.498;2024-02-15T02:27:53;8.92;;;8.12;;
1987;SDS011;12775;46.994;15.498;2024-02-15T02:30:21;10.12;;;6.86;;
1987;SDS011;12775;46.994;15.498;2024-02-15T02:32:49;10.06;;;7.88;;
1987;SDS011;12775;46.994;15.498;2024-02-15T02:35:16;9.36;;;7.10;;
1987;SDS011;12775;46.994;15.498;2024-02-15T02:37:44;8.22;;;7.18;;
1987;SDS011;12775;46.994;15.498;2024-02-15T02:40:11;9.98;;;8.22;;
1987;SDS011;12775;46.994;15.498;2024-02-15T02:45:13;11.50;;;9.38;;
1987;SDS011;12775;46.994;15.498;2024-02-15T02:47:40;11.36;;;9.76;;
1987;SDS011;12775;46.994;15.498;2024-02-15T02:50:07;12.88;;;8.96;;
1987;SDS011;12775;46.994;15.498;2024-02-15T02:52:35;15.26;;;8.70;;
1987;SDS011;12775;46.994;15.498;2024-02-15T02:55:02;10.76;;;9.18;;
1987;SDS011;12775;46.994;15.498;2024-02-15T02:57:30;9.42;;;8.02;;
1987;SDS011;12775;46.994;15.498;2024-02-15T02:59:58;13.00;;;7.68;;
1987;SDS011;12775;46.994;15.498;2024-02-15T03:02:26;10.28;;;7.56;;
1987;SDS011;12775;46.994;15.498;2024-02-15T03:04:53;9.60;;;7.96;;
1987;SDS011;12775;46.994;15.498;2024-02-15T03:07:20;9.70;;;8.42;;
1987;SDS011;12775;46.994;15.498;2024-02-15T03:09:48;10.68;;;8.80;;
1987;SDS011;12775;46.994;15.498;2024-02-15T03:12:15;9.48;;;7.96;;
1987;SDS011;12775;46.994;15.498;2024-02-15T03:14:43;11.36;;;8.40;;
1987;SDS011;12775;46.994;15.498;2024-02-15T03:17:10;15.34;;;9.00;;
1987;SDS011;12775;46.994;15.498;2024-02-15T03:19:37;9.10;;;8.20;;
1987;SDS011;12775;46.994;15.498;2024-02-15T03:22:05;11.32;;;8.74;;
1987;SDS011;12775;46.994;15.498;2024-02-15T03:24:32;8.98;;;8.08;;
1987;SDS011;12775;46.994;15.498;2024-02-15T03:26:59;11.20;;;9.14;;
1987;SDS011;12775;46.994;15.498;2024-02-15T03:29:28;9.56;;;8.66;;
1987;SDS011;12775;46.994;15.498;2024-02-15T03:31:55;13.12;;;10.46;;
1987;SDS011;12775;46.994;15.498;2024-02-15T03:34:22;12.22;;;9.86;;
1987;SDS011;12775;46.994;15.498;2024-02-15T03:36:50;11.30;;;9.80;;
1987;SDS011;12775;46.994;15.498;2024-02-15T03:39:17;11.84;;;9.58;;
1987;SDS011;12775;46.994;15.498;2024-02-15T03:41:45;13.52;;;9.64;;
1987;SDS011;12775;46.994;15.498;2024-02-15T03:44:12;9.96;;;8.78;;
1987;SDS011;12775;46.994;15.498;2024-02-15T03:46:39;11.74;;;9.14;;
1987;SDS011;12775;46.994;15.498;2024-02-15T03:49:07;9.50;;;7.80;;
1987;SDS011;12775;46.994;15.498;2024-02-15T03:51:34;12.76;;;9.28;;
1987;SDS011;12775;46.994;15.498;2024-02-15T03:54:01;12.22;;;8.48;;
1987;SDS011;12775;46.994;15.498;2024-02-15T03:56:29;13.00;;;9.78;;
1987;SDS011;12775;46.994;15.498;2024-02-15T03:58:56;11.60;;;9.16;;
1987;SDS011;12775;46.994;15.498;2024-02-15T04:01:24;10.62;;;8.60;;
1987;SDS011;12775;46.994;15.498;2024-02-15T04:03:51;9.48;;;7.28;;
1987;SDS011;12775;46.994;15.498;2024-02-15T04:06:18;8.08;;;7.30;;
1987;SDS011;12775;46.994;15.498;2024-02-15T04:08:46;11.68;;;7.82;;
1987;SDS011;12775;46.994;15.498;2024-02-15T04:11:13;10.52;;;8.08;;
1987;SDS011;12775;46.994;15.498;2024-02-15T04:13:40;10.36;;;8.24;;
1987;SDS011;12775;46.994;15.498;2024-02-15T04:16:08;11.68;;;9.42;;
1987;SDS011;12775;46.994;15.498;2024-02-15T04:18:35;9.34;;;8.16;;
1987;SDS011;12775;46.994;15.498;2024-02-15T04:21:03;14.84;;;9.50;;
1987;SDS011;12775;46.994;15.498;2024-02-15T04:23:30;13.62;;;9.28;;
1987;SDS011;12775;46.994;15.498;2024-02-15T04:25:57;14.32;;;10.26;;
1987;SDS011;12775;46.994;15.498;2024-02-15T04:28:25;9.78;;;8.62;;
1987;SDS011;12775;46.994;15.498;2024-02-15T04:30:52;9.46;;;8.50;;
1987;SDS011;12775;46.994;15.498;2024-02-15T04:33:20;13.46;;;8.94;;
1987;SDS011;12775;46.994;15.498;2024-02-15T04:35:47;11.44;;;8.68;;
1987;SDS011;12775;46.994;15.498;2024-02-15T04:38:14;10.78;;;8.44;;
1987;SDS011;12775;46.994;15.498;2024-02-15T04:40:42;15.66;;;8.54;;
1987;SDS011;12775;46.994;15.498;2024-02-15T04:43:09;9.60;;;7.94;;
1987;SDS011;12775;46.994;15.498;2024-02-15T04:45:36;15.66;;;9.56;;
1987;SDS011;12775;46.994;15.498;2024-02-15T04:48:04;11.42;;;9.16;;
1987;SDS011;12775;46.994;15.498;2024-02-15T04:50:32;9.84;;;8.34;;
1987;SDS011;12775;46.994;15.498;2024-02-15T04:52:59;15.82;;;9.02;;
1987;SDS011;12775;46.994;15.498;2024-02-15T04:55:28;11.80;;;8.92;;
1987;SDS011;12775;46.994;15.498;2024-02-15T04:57:55;12.40;;;9.94;;
1987;SDS011;12775;46.994;15.498;2024-02-15T05:00:23;12.34;;;9.60;;
1987;SDS011;12775;46.994;15.498;2024-02-15T05:02:51;28.08;;;10.02;;
1987;SDS011;12775;46.994;15.498;2024-02-15T05:05:19;11.64;;;8.58;;
1987;SDS011;12775;46.994;15.498;2024-02-15T05:07:46;12.36;;;10.16;;
1987;SDS011;12775;46.994;15.498;2024-02-15T05:10:14;14.44;;;9.54;;
1987;SDS011;12775;46.994;15.498;2024-02-15T05:12:41;14.72;;;9.10;;
1987;SDS011;12775;46.994;15.498;2024-02-15T05:15:10;11.44;;;8.74;;
1987;SDS011;12775;46.994;15.498;2024-02-15T05:17:38;20.96;;;10.00;;
1987;SDS011;12775;46.994;15.498;2024-02-15T05:20:06;10.48;;;8.86;;
1987;SDS011;12775;46.994;15.498;2024-02-15T05:22:34;10.02;;;8.46;;
1987;SDS011;12775;46.994;15.498;2024-02-15T05:25:02;23.38;;;10.98;;
1987;SDS011;12775;46.994;15.498;2024-02-15T05:27:29;19.70;;;10.90;;
1987;SDS011;12775;46.994;15.498;2024-02-15T05:29:56;16.42;;;11.04;;
1987;SDS011;12775;46.994;15.498;2024-02-15T05:32:23;15.64;;;10.66;;
1987;SDS011;12775;46.994;15.498;2024-02-15T05:34:51;20.08;;;10.80;;
1987;SDS011;12775;46.994;15.498;2024-02-15T05:37:18;11.68;;;9.82;;
1987;SDS011;12775;46.994;15.498;2024-02-15T05:39:45;17.64;;;10.86;;
1987;SDS011;12775;46.994;15.498;2024-02-15T05:42:14;18.06;;;10.48;;
1987;SDS011;12775;46.994;15.498;2024-02-15T05:44:41;23.52;;;12.52;;
1987;SDS011;12775;46.994;15.498;2024-02-15T05:47:08;17.76;;;11.84;;
1987;SDS011;12775;46.994;15.498;2024-02-15T05:49:37;20.04;;;9.76;;
1987;SDS011;12775;46.994;15.498;2024-02-15T05:52:04;15.08;;;10.02;;
1987;SDS011;12775;46.994;15.498;2024-02-15T05:54:31;17.86;;;10.88;;
1987;SDS011;12775;46.994;15.498;2024-02-15T05:56:58;11.40;;;8.76;;
1987;SDS011;12775;46.994;15.498;2024-02-15T05:59:25;12.90;;;9.24;;
1987;SDS011;12775;46.994;15.498;2024-02-15T06:01:53;23.60;;;13.18;;
1987;SDS011;12775;46.994;15.498;2024-02-15T06:04:22;17.16;;;10.96;;
1987;SDS011;12775;46.994;15.498;2024-02-15T06:06:49;25.24;;;12.18;;
1987;SDS011;12775;46.994;15.498;2024-02-15T06:09:17;18.54;;;10.10;;
1987;SDS011;12775;46.994;15.498;2024-02-15T06:11:43;15.48;;;10.38;;
1987;SDS011;12775;46.994;15.498;2024-02-15T06:14:10;14.54;;;9.32;;
1987;SDS011;12775;46.994;15.498;2024-02-15T06:16:43;16.88;;;10.40;;
1987;SDS011;12775;46.994;15.498;2024-02-15T06:19:10;16.42;;;10.56;;
1987;SDS011;12775;46.994;15.498;2024-02-15T06:21:38;15.96;;;9.90;;
1987;SDS011;12775;46.994;15.498;2024-02-15T06:24:05;10.70;;;8.78;;
1987;SDS011;12775;46.994;15.498;2024-02-15T06:26:33;14.96;;;9.84;;
1987;SDS011;12775;46.994;15.498;2024-02-15T06:29:00;13.66;;;11.32;;
1987;SDS011;12775;46.994;15.498;2024-02-15T06:31:33;20.94;;;9.70;;
1987;SDS011;12775;46.994;15.498;2024-02-15T06:34:06;25.40;;;15.60;;
1987;SDS011;12775;46.994;15.498;2024-02-15T06:36:41;20.90;;;16.30;;
1987;SDS011;12775;46.994;15.498;2024-02-15T06:39:13;19.16;;;14.22;;
1987;SDS011;12775;46.994;15.498;2024-02-15T06:41:46;18.84;;;12.90;;
1987;SDS011;12775;46.994;15.498;2024-02-15T06:44:12;20.26;;;15.16;;
1987;SDS011;12775;46.994;15.498;2024-02-15T06:46:40;24.80;;;13.84;;
1987;SDS011;12775;46.994;15.498;2024-02-15T06:49:07;15.36;;;12.34;;
1987;SDS011;12775;46.994;15.498;2024-02-15T06:51:34;18.78;;;12.28;;
1987;SDS011;12775;46.994;15.498;2024-02-15T06:54:02;20.48;;;11.46;;
1987;SDS011;12775;46.994;15.498;2024-02-15T06:56:29;32.00;;;10.88;;
1987;SDS011;12775;46.994;15.498;2024-02-15T06:58:56;15.36;;;9.90;;
1987;SDS011;12775;46.994;15.498;2024-02-15T07:01:24;16.90;;;11.22;;
1987;SDS011;12775;46.994;15.498;2024-02-15T07:03:51;14.98;;;11.14;;
1987;SDS011;12775;46.994;15.498;2024-02-15T07:06:19;22.12;;;13.64;;
1987;SDS011;12775;46.994;15.498;2024-02-15T07:08:47;19.50;;;11.44;;
1987;SDS011;12775;46.994;15.498;2024-02-15T07:11:14;14.54;;;10.40;;
1987;SDS011;12775;46.994;15.498;2024-02-15T07:13:42;14.76;;;11.66;;
1987;SDS011;12775;46.994;15.498;2024-02-15T07:16:08;17.46;;;11.00;;
1987;SDS011;12775;46.994;15.498;2024-02-15T07:18:36;12.92;;;10.32;;
1987;SDS011;12775;46.994;15.498;2024-02-15T07:21:03;20.52;;;11.70;;
1987;SDS011;12775;46.994;15.498;2024-02-15T07:23:31;20.82;;;12.18;;
1987;SDS011;12775;46.994;15.498;2024-02-15T07:25:58;18.66;;;11.98;;
1987;SDS011;12775;46.994;15.498;2024-02-15T07:28:25;13.94;;;10.10;;
1987;SDS011;12775;46.994;15.498;2024-02-15T07:30:53;22.56;;;13.52;;
1987;SDS011;12775;46.994;15.498;2024-02-15T07:33:21;23.08;;;12.52;;
1987;SDS011;12775;46.994;15.498;2024-02-15T07:35:48;16.36;;;13.32;;
1987;SDS011;12775;46.994;15.498;2024-02-15T07:38:15;19.28;;;11.88;;
1987;SDS011;12775;46.994;15.498;2024-02-15T07:40:42;18.46;;;12.20;;
1987;SDS011;12775;46.994;15.498;2024-02-15T07:43:10;18.16;;;12.42;;
1987;SDS011;12775;46.994;15.498;2024-02-15T07:45:37;27.42;;;16.72;;
1987;SDS011;12775;46.994;15.498;2024-02-15T07:48:04;21.14;;;15.26;;
1987;SDS011;12775;46.994;15.498;2024-02-15T07:50:32;14.48;;;11.62;;
1987;SDS011;12775;46.994;15.498;2024-02-15T07:52:59;18.24;;;12.06;;
1987;SDS011;12775;46.994;15.498;2024-02-15T07:55:27;17.66;;;12.08;;
1987;SDS011;12775;46.994;15.498;2024-02-15T07:57:54;19.62;;;11.90;;
1987;SDS011;12775;46.994;15.498;2024-02-15T08:00:21;15.78;;;11.52;;
1987;SDS011;12775;46.994;15.498;2024-02-15T08:02:48;11.86;;;10.12;;
1987;SDS011;12775;46.994;15.498;2024-02-15T08:05:15;17.18;;;10.10;;
1987;SDS011;12775;46.994;15.498;2024-02-15T08:07:44;15.68;;;10.28;;
1987;SDS011;12775;46.994;15.498;2024-02-15T08:10:11;15.38;;;11.00;;
1987;SDS011;12775;46.994;15.498;2024-02-15T08:12:41;22.08;;;14.30;;
1987;SDS011;12775;46.994;15.498;2024-02-15T08:15:08;19.50;;;13.58;;
1987;SDS011;12775;46.994;15.498;2024-02-15T08:17:39;14.42;;;11.56;;
1987;SDS011;12775;46.994;15.498;2024-02-15T08:20:07;19.22;;;12.52;;
1987;SDS011;12775;46.994;15.498;2024-02-15T08:22:35;15.40;;;12.22;;
1987;SDS011;12775;46.994;15.498;2024-02-15T08:25:03;14.36;;;11.70;;
1987;SDS011;12775;46.994;15.498;2024-02-15T08:27:31;16.06;;;12.40;;
1987;SDS011;12775;46.994;15.498;2024-02-15T08:29:59;20.32;;;11.30;;
1987;SDS011;12775;46.994;15.498;2024-02-15T08:32:26;21.42;;;13.14;;
1987;SDS011;12775;46.994;15.498;2024-02-15T08:34:53;13.42;;;10.40;;
1987;SDS011;12775;46.994;15.498;2024-02-15T08:37:21;14.20;;;10.82;;
1987;SDS011;12775;46.994;15.498;2024-02-15T08:39:48;11.82;;;10.04;;
1987;SDS011;12775;46.994;15.498;2024-02-15T08:42:15;13.94;;;10.40;;
1987;SDS011;12775;46.994;15.498;2024-02-15T08:44:44;12.46;;;9.54;;
1987;SDS011;12775;46.994;15.498;2024-02-15T08:47:11;9.28;;;8.04;;
1987;SDS011;12775;46.994;15.498;2024-02-15T08:49:39;9.80;;;8.70;;
1987;SDS011;12775;46.994;15.498;2024-02-15T08:52:06;10.72;;;9.62;;
1987;SDS011;12775;46.994;15.498;2024-02-15T08:54:35;10.44;;;9.22;;
1987;SDS011;12775;46.994;15.498;2024-02-15T08:57:01;15.48;;;10.70;;
1987;SDS011;12775;46.994;15.498;2024-02-15T08:59:29;13.06;;;11.14;;
1987;SDS011;12775;46.994;15.498;2024-02-15T09:01:56;14.32;;;10.76;;
1987;SDS011;12775;46.994;15.498;2024-02-15T09:04:24;12.40;;;10.28;;
1987;SDS011;12775;46.994;15.498;2024-02-15T09:06:51;16.20;;;10.96;;
1987;SDS011;12775;46.994;15.498;2024-02-15T09:09:18;12.74;;;9.68;;
1987;SDS011;12775;46.994;15.498;2024-02-15T09:11:46;8.94;;;8.04;;
1987;SDS011;12775;46.994;15.498;2024-02-15T09:14:13;14.40;;;10.48;;
1987;SDS011;12775;46.994;15.498;2024-02-15T09:16:40;10.22;;;8.36;;
1987;SDS011;12775;46.994;15.498;2024-02-15T09:19:08;13.18;;;8.60;;
1987;SDS011;12775;46.994;15.498;2024-02-15T09:21:35;8.94;;;8.02;;
1987;SDS011;12775;46.994;15.498;2024-02-15T09:24:02;13.48;;;8.78;;
1987;SDS011;12775;46.994;15.498;2024-02-15T09:26:30;13.62;;;8.14;;
1987;SDS011;12775;46.994;15.498;2024-02-15T09:28:57;11.38;;;8.72;;
1987;SDS011;12775;46.994;15.498;2024-02-15T09:31:25;10.92;;;9.38;;
1987;SDS011;12775;46.994;15.498;2024-02-15T09:33:52;10.28;;;8.52;;
1987;SDS011;12775;46.994;15.498;2024-02-15T09:36:19;9.82;;;8.82;;
1987;SDS011;12775;46.994;15.498;2024-02-15T09:38:47;9.62;;;7.94;;
1987;SDS011;12775;46.994;15.498;2024-02-15T09:41:14;11.52;;;8.10;;
1987;SDS011;12775;46.994;15.498;2024-02-15T09:43:41;9.28;;;8.00;;
1987;SDS011;12775;46.994;15.498;2024-02-15T09:46:09;20.74;;;9.02;;
1987;SDS011;12775;46.994;15.498;2024-02-15T09:48:36;13.78;;;8.56;;
1987;SDS011;12775;46.994;15.498;2024-02-15T09:51:04;10.32;;;6.96;;
1987;SDS011;12775;46.994;15.498;2024-02-15T09:53:31;12.00;;;7.34;;
1987;SDS011;12775;46.994;15.498;2024-02-15T09:55:58;8.66;;;7.42;;
1987;SDS011;12775;46.994;15.498;2024-02-15T09:58:26;9.26;;;7.10;;
1987;SDS011;12775;46.994;15.498;2024-02-15T10:00:53;10.90;;;7.50;;
1987;SDS011;12775;46.994;15.498;2024-02-15T10:03:21;11.62;;;7.62;;
1987;SDS011;12775;46.994;15.498;2024-02-15T10:05:48;11.16;;;8.22;;
1987;SDS011;12775;46.994;15.498;2024-02-15T10:08:15;8.74;;;7.82;;
1987;SDS011;12775;46.994;15.498;2024-02-15T10:10:42;12.82;;;7.92;;
1987;SDS011;12775;46.994;15.498;2024-02-15T10:13:12;15.92;;;7.18;;
1987;SDS011;12775;46.994;15.498;2024-02-15T10:15:40;10.58;;;6.14;;
1987;SDS011;12775;46.994;15.498;2024-02-15T10:18:08;10.90;;;6.66;;
1987;SDS011;12775;46.994;15.498;2024-02-15T10:20:36;9.30;;;5.68;;
1987;SDS011;12775;46.994;15.498;2024-02-15T10:23:08;8.50;;;6.24;;
1987;SDS011;12775;46.994;15.498;2024-02-15T10:25:39;6.56;;;5.66;;
1987;SDS011;12775;46.994;15.498;2024-02-15T10:28:07;11.16;;;6.20;;
1987;SDS011;12775;46.994;15.498;2024-02-15T10:30:35;8.76;;;5.40;;
1987;SDS011;12775;46.994;15.498;2024-02-15T10:33:02;9.86;;;6.26;;
1987;SDS011;12775;46.994;15.498;2024-02-15T10:35:29;8.58;;;6.56;;
1987;SDS011;12775;46.994;15.498;2024-02-15T10:40:34;8.68;;;6.50;;
1987;SDS011;12775;46.994;15.498;2024-02-15T10:43:02;8.50;;;5.42;;
1987;SDS011;12775;46.994;15.498;2024-02-15T10:45:30;6.94;;;5.82;;
1987;SDS011;12775;46.994;15.498;2024-02-15T10:47:57;7.20;;;6.50;;
1987;SDS011;12775;46.994;15.498;2024-02-15T10:50:24;7.50;;;5.96;;
1987;SDS011;12775;46.994;15.498;2024-02-15T10:52:55;7.84;;;6.60;;
1987;SDS011;12775;46.994;15.498;2024-02-15T10:58:07;7.46;;;6.66;;
1987;SDS011;12775;46.994;15.498;2024-02-15T11:00:35;6.70;;;5.92;;
1987;SDS011;12775;46.994;15.498;2024-02-15T11:03:03;7.00;;;5.42;;
1987;SDS011;12775;46.994;15.498;2024-02-15T11:05:32;6.84;;;5.28;;
1987;SDS011;12775;46.994;15.498;2024-02-15T11:07:59;8.54;;;5.16;;
1987;SDS011;12775;46.994;15.498;2024-02-15T11:10:26;6.94;;;5.54;;
1987;SDS011;12775;46.994;15.498;2024-02-15T11:12:54;11.42;;;5.12;;
1987;SDS011;12775;46.994;15.498;2024-02-15T11:15:55;5.38;;;4.70;;
1987;SDS011;12775;46.994;15.498;2024-02-15T11:18:07;5.88;;;4.38;;
1987;SDS011;12775;46.994;15.498;2024-02-15T11:23:23;5.42;;;4.92;;
1987;SDS011;12775;46.994;15.498;2024-02-15T11:25:51;7.74;;;5.34;;
1987;SDS011;12775;46.994;15.498;2024-02-15T11:28:36;7.72;;;5.26;;
1987;SDS011;12775;46.994;15.498;2024-02-15T11:31:03;7.70;;;5.32;;
1987;SDS011;12775;46.994;15.498;2024-02-15T11:33:33;5.12;;;4.18;;
1987;SDS011;12775;46.994;15.498;2024-02-15T11:36:03;4.96;;;4.32;;
1987;SDS011;12775;46.994;15.498;2024-02-15T11:38:32;7.20;;;4.92;;
1987;SDS011;12775;46.994;15.498;2024-02-15T11:41:00;7.34;;;4.16;;
1987;SDS011;12775;46.994;15.498;2024-02-15T11:46:17;7.02;;;4.00;;
1987;SDS011;12775;46.994;15.498;2024-02-15T11:48:46;4.44;;;3.86;;
1987;SDS011;12775;46.994;15.498;2024-02-15T11:56:27;5.88;;;4.10;;
1987;SDS011;12775;46.994;15.498;2024-02-15T12:01:29;6.18;;;3.78;;
1987;SDS011;12775;46.994;15.498;2024-02-15T12:04:02;5.48;;;4.20;;
1987;SDS011;12775;46.994;15.498;2024-02-15T12:06:35;4.18;;;3.78;;
1987;SDS011;12775;46.994;15.498;2024-02-15T12:09:08;5.80;;;4.04;;
1987;SDS011;12775;46.994;15.498;2024-02-15T12:11:41;5.20;;;4.12;;
1987;SDS011;12775;46.994;15.498;2024-02-15T12:14:15;8.00;;;4.62;;
1987;SDS011;12775;46.994;15.498;2024-02-15T12:16:58;5.54;;;4.48;;
1987;SDS011;12775;46.994;15.498;2024-02-15T12:19:21;10.40;;;4.80;;
1987;SDS011;12775;46.994;15.498;2024-02-15T12:21:48;4.22;;;3.00;;
1987;SDS011;12775;46.994;15.498;2024-02-15T12:24:15;3.30;;;2.96;;
1987;SDS011;12775;46.994;15.498;2024-02-15T12:26:42;5.16;;;3.46;;
1987;SDS011;12775;46.994;15.498;2024-02-15T12:29:09;3.42;;;2.82;;
1987;SDS011;12775;46.994;15.498;2024-02-15T12:31:37;3.00;;;2.74;;
1987;SDS011;12775;46.994;15.498;2024-02-15T12:34:05;3.36;;;3.06;;
1987;SDS011;12775;46.994;15.498;2024-02-15T12:36:34;4.30;;;2.98;;
1987;SDS011;12775;46.994;15.498;2024-02-15T12:39:01;5.48;;;2.96;;
1987;SDS011;12775;46.994;15.498;2024-02-15T12:41:27;5.62;;;2.90;;
1987;SDS011;12775;46.994;15.498;2024-02-15T12:43:55;3.72;;;2.90;;
1987;SDS011;12775;46.994;15.498;2024-02-15T12:46:22;3.92;;;3.08;;
1987;SDS011;12775;46.994;15.498;2024-02-15T12:48:49;3.46;;;2.84;;
1987;SDS011;12775;46.994;15.498;2024-02-15T12:51:17;6.00;;;2.54;;
1987;SDS011;12775;46.994;15.498;2024-02-15T12:53:44;4.94;;;2.62;;
1987;SDS011;12775;46.994;15.498;2024-02-15T12:56:19;2.96;;;2.52;;
1987;SDS011;12775;46.994;15.498;2024-02-15T12:58:39;3.44;;;2.54;;
1987;SDS011;12775;46.994;15.498;2024-02-15T13:01:06;5.42;;;2.74;;
1987;SDS011;12775;46.994;15.498;2024-02-15T13:03:34;3.08;;;2.46;;
1987;SDS011;12775;46.994;15.498;2024-02-15T13:06:01;4.90;;;2.64;;
1987;SDS011;12775;46.994;15.498;2024-02-15T13:08:28;2.50;;;2.16;;
1987;SDS011;12775;46.994;15.498;2024-02-15T13:10:56;1.84;;;1.48;;
1987;SDS011;12775;46.994;15.498;2024-02-15T13:13:23;2.70;;;2.36;;
1987;SDS011;12775;46.994;15.498;2024-02-15T13:15:50;4.06;;;1.88;;
1987;SDS011;12775;46.994;15.498;2024-02-15T13:18:17;2.74;;;2.18;;
1987;SDS011;12775;46.994;15.498;2024-02-15T13:20:44;2.46;;;2.08;;
1987;SDS011;12775;46.994;15.498;2024-02-15T13:23:12;3.90;;;2.70;;
1987;SDS011;12775;46.994;15.498;2024-02-15T13:25:41;3.00;;;2.74;;
1987;SDS011;12775;46.994;15.498;2024-02-15T13:28:09;6.02;;;3.72;;
1987;SDS011;12775;46.994;15.498;2024-02-15T13:30:38;4.34;;;2.32;;
1987;SDS011;12775;46.994;15.498;2024-02-15T13:33:06;2.50;;;1.90;;
1987;SDS011;12775;46.994;15.498;2024-02-15T13:35:33;4.30;;;3.02;;
1987;SDS011;12775;46.994;15.498;2024-02-15T13:38:00;5.50;;;3.42;;
1987;SDS011;12775;46.994;15.498;2024-02-15T13:40:28;7.78;;;2.70;;
1987;SDS011;12775;46.994;15.498;2024-02-15T13:42:56;4.42;;;2.40;;
1987;SDS011;12775;46.994;15.498;2024-02-15T13:45:28;5.10;;;2.66;;
1987;SDS011;12775;46.994;15.498;2024-02-15T13:47:57;5.52;;;3.10;;
1987;SDS011;12775;46.994;15.498;2024-02-15T13:50:26;3.52;;;2.70;;
1987;SDS011;12775;46.994;15.498;2024-02-15T13:52:52;2.38;;;2.18;;
1987;SDS011;12775;46.994;15.498;2024-02-15T13:55:20;3.30;;;3.00;;
1987;SDS011;12775;46.994;15.498;2024-02-15T13:57:47;5.32;;;2.38;;
1987;SDS011;12775;46.994;15.498;2024-02-15T14:00:16;5.44;;;2.24;;
1987;SDS011;12775;46.994;15.498;2024-02-15T14:02:54;3.72;;;2.34;;
1987;SDS011;12775;46.994;15.498;2024-02-15T14:05:23;2.84;;;2.42;;
1987;SDS011;12775;46.994;15.498;2024-02-15T14:07:49;2.22;;;2.02;;
1987;SDS011;12775;46.994;15.498;2024-02-15T14:10:16;2.36;;;2.16;;
1987;SDS011;12775;46.994;15.498;2024-02-15T14:12:45;3.44;;;2.66;;
1987;SDS011;12775;46.994;15.498;2024-02-15T14:15:11;3.14;;;2.26;;
1987;SDS011;12775;46.994;15.498;2024-02-15T14:17:38;4.02;;;1.94;;
1987;SDS011;12775;46.994;15.498;2024-02-15T14:20:06;6.06;;;2.90;;
1987;SDS011;12775;46.994;15.498;2024-02-15T14:22:35;3.38;;;2.60;;
1987;SDS011;12775;46.994;15.498;2024-02-15T14:25:02;3.24;;;2.02;;
1987;SDS011;12775;46.994;15.498;2024-02-15T14:27:30;4.16;;;3.20;;
1987;SDS011;12775;46.994;15.498;2024-02-15T14:29:57;4.22;;;2.10;;
1987;SDS011;12775;46.994;15.498;2024-02-15T14:32:29;3.34;;;2.34;;
1987;SDS011;12775;46.994;15.498;2024-02-15T14:35:01;3.52;;;2.24;;
1987;SDS011;12775;46.994;15.498;2024-02-15T14:37:29;2.64;;;2.12;;
1987;SDS011;12775;46.994;15.498;2024-02-15T14:39:56;6.64;;;3.08;;
1987;SDS011;12775;46.994;15.498;2024-02-15T14:42:23;4.48;;;2.50;;
1987;SDS011;12775;46.994;15.498;2024-02-15T14:44:51;3.68;;;3.08;;
1987;SDS011;12775;46.994;15.498;2024-02-15T14:47:18;2.82;;;2.24;;
1987;SDS011;12775;46.994;15.498;2024-02-15T14:49:45;4.80;;;2.40;;
1987;SDS011;12775;46.994;15.498;2024-02-15T14:52:13;3.44;;;2.42;;
1987;SDS011;12775;46.994;15.498;2024-02-15T14:54:40;2.90;;;2.56;;
1987;SDS011;12775;46.994;15.498;2024-02-15T14:57:08;3.92;;;3.46;;
1987;SDS011;12775;46.994;15.498;2024-02-15T14:59:35;4.86;;;2.80;;